Time;durP1;ratioP1;P1;durP2;ratioP2;P2;SDS_P1;SDS_P2;PMS_P1;PMS_P2;Temp;Humidity;BMP_temperature;BMP_pressure;BME280_temperature;BME280_humidity;BME280_pressure;Samples;Min_cycle;Max_cycle;Signal;HPM_P1;HPM_P2
2022/10/07 00:01:01;;;;;;;0.77;0.77;;;;;;;;;;5037353;28;20029;-75
2022/10/07 00:03:27;;;;;;;1.42;1.33;;;;;;;;;;5054893;28;20526;-75
2022/10/07 00:06:05;;;;;;;0.28;0.28;;;;;;;;;;5054920;28;20039;-74
2022/10/07 00:08:31;;;;;;;0.43;0.43;;;;;;;;;;5036953;28;20036;-75
2022/10/07 00:11:02;;;;;;;0.73;0.73;;;;;;;;;;5055039;28;20033;-75
2022/10/07 00:13:27;;;;;;;1.60;1.50;;;;;;;;;;5054982;28;20022;-74
2022/10/07 00:15:53;;;;;;;0.30;0.30;;;;;;;;;;5054484;28;20048;-75
2022/10/07 00:18:18;;;;;;;0.25;0.25;;;;;;;;;;5054078;28;20028;-75
2022/10/07 00:20:46;;;;;;;0.45;0.45;;;;;;;;;;5053889;28;20029;-73
2022/10/07 00:23:12;;;;;;;0.40;0.40;;;;;;;;;;5036350;28;20183;-73
2022/10/07 00:25:38;;;;;;;0.57;0.57;;;;;;;;;;5054649;28;20052;-74
2022/10/07 00:28:04;;;;;;;0.20;0.20;;;;;;;;;;5036891;28;20495;-74
2022/10/07 00:30:29;;;;;;;0.43;0.43;;;;;;;;;;5054516;28;20044;-76
2022/10/07 00:32:55;;;;;;;0.80;0.80;;;;;;;;;;5054502;28;20062;-73
2022/10/07 00:35:21;;;;;;;0.10;0.10;;;;;;;;;;5054397;28;20427;-73
2022/10/07 00:37:46;;;;;;;0.20;0.20;;;;;;;;;;5036239;28;20024;-74
2022/10/07 00:40:12;;;;;;;0.10;0.10;;;;;;;;;;5054602;28;20032;-75
2022/10/07 00:42:39;;;;;;;0.60;0.60;;;;;;;;;;5030255;28;20064;-73
2022/10/07 00:45:05;;;;;;;0.15;0.15;;;;;;;;;;5073288;28;20040;-73
2022/10/07 00:47:33;;;;;;;0.20;0.20;;;;;;;;;;5071521;28;20029;-73
2022/10/07 00:50:09;;;;;;;1.20;1.20;;;;;;;;;;5056791;28;20032;-72
2022/10/07 00:52:43;;;;;;;4.22;3.85;;;;;;;;;;5056133;28;20440;-73
2022/10/07 00:55:11;;;;;;;2.05;1.95;;;;;;;;;;5073972;28;20025;-73
2022/10/07 00:57:38;;;;;;;0.20;0.20;;;;;;;;;;5062129;28;20028;-73
2022/10/07 01:00:05;;;;;;;0.20;0.20;;;;;;;;;;5061833;28;20016;-72
2022/10/07 01:02:31;;;;;;;0.20;0.20;;;;;;;;;;5048483;28;20047;-73
2022/10/07 01:04:58;;;;;;;0.20;0.20;;;;;;;;;;5071405;28;20435;-72
2022/10/07 01:07:23;;;;;;;1.00;1.00;;;;;;;;;;5071491;28;20025;-74
2022/10/07 01:09:50;;;;;;;0.20;0.20;;;;;;;;;;5053619;28;20031;-73
2022/10/07 01:12:36;;;;;;;0.40;0.40;;;;;;;;;;5059468;28;20468;-74
2022/10/07 01:15:07;;;;;;;0.63;0.63;;;;;;;;;;5052913;28;20064;-73
2022/10/07 01:17:40;;;;;;;0.30;0.30;;;;;;;;;;5034930;28;20058;-74
2022/10/07 01:20:12;;;;;;;0.20;0.20;;;;;;;;;;5035207;28;20029;-73
2022/10/07 01:22:37;;;;;;;0.25;0.25;;;;;;;;;;5053112;28;20029;-73
2022/10/07 01:25:03;;;;;;;0.30;0.30;;;;;;;;;;5052859;28;20017;-75
2022/10/07 01:27:29;;;;;;;0.20;0.20;;;;;;;;;;5065417;28;20053;-75
2022/10/07 01:29:57;;;;;;;0.22;0.22;;;;;;;;;;5072533;28;20025;-74
2022/10/07 01:32:26;;;;;;;0.88;0.88;;;;;;;;;;5041872;28;20359;-75
2022/10/07 01:34:54;;;;;;;0.20;0.20;;;;;;;;;;5052668;28;20472;-72
2022/10/07 01:37:21;;;;;;;3.03;2.75;;;;;;;;;;5052643;28;20029;-74
2022/10/07 01:39:48;;;;;;;0.10;0.10;;;;;;;;;;5052712;28;20040;-74
2022/10/07 01:42:14;;;;;;;0.15;0.15;;;;;;;;;;5027689;28;20055;-74
2022/10/07 01:44:41;;;;;;;0.77;0.77;;;;;;;;;;5072364;28;20387;-72
2022/10/07 01:47:06;;;;;;;0.10;0.10;;;;;;;;;;5038179;28;20070;-75
2022/10/07 01:49:33;;;;;;;0.40;0.40;;;;;;;;;;5054702;28;20028;-75
2022/10/07 01:52:06;;;;;;;0.25;0.25;;;;;;;;;;5054884;28;20035;-74
2022/10/07 01:54:42;;;;;;;0.20;0.20;;;;;;;;;;5072320;28;20029;-75
2022/10/07 01:57:17;;;;;;;0.10;0.10;;;;;;;;;;5054350;28;20090;-75
2022/10/07 02:00:04;;;;;;;0.10;0.10;;;;;;;;;;5071751;28;20020;-73
2022/10/07 02:02:46;;;;;;;0.28;0.25;;;;;;;;;;5057517;28;20055;-72
2022/10/07 02:05:11;;;;;;;0.20;0.20;;;;;;;;;;5060458;28;20027;-74
2022/10/07 02:07:55;;;;;;;0.20;0.20;;;;;;;;;;5037442;28;20021;-74
2022/10/07 02:10:27;;;;;;;0.17;0.17;;;;;;;;;;5072492;28;20035;-75
2022/10/07 02:12:52;;;;;;;0.20;0.20;;;;;;;;;;5068006;28;20029;-74
2022/10/07 02:17:57;;;;;;;0.10;0.10;;;;;;;;;;5090447;27;20456;-75
2022/10/07 02:20:25;;;;;;;0.20;0.20;;;;;;;;;;5089655;28;20032;-75
2022/10/07 02:22:54;;;;;;;0.20;0.20;;;;;;;;;;5085117;28;20033;-75
2022/10/07 02:25:20;;;;;;;1.58;1.50;;;;;;;;;;5069482;28;20028;-74
2022/10/07 02:27:47;;;;;;;0.60;0.60;;;;;;;;;;5070777;28;20437;-74
2022/10/07 02:30:15;;;;;;;0.20;0.20;;;;;;;;;;5069117;28;20024;-74
2022/10/07 02:32:42;;;;;;;;;;;;;;;;;;5069202;28;20028;-75
2022/10/07 02:35:13;;;;;;;1.55;1.45;;;;;;;;;;5070341;28;19909;-75
2022/10/07 02:37:40;;;;;;;0.10;0.10;;;;;;;;;;5069054;28;20095;-74
2022/10/07 02:40:06;;;;;;;0.68;0.68;;;;;;;;;;5068926;28;20028;-76
2022/10/07 02:42:41;;;;;;;0.40;0.40;;;;;;;;;;5070016;28;20033;-75
2022/10/07 02:45:15;;;;;;;0.30;0.30;;;;;;;;;;5068530;28;20392;-74
2022/10/07 02:47:40;;;;;;;0.20;0.20;;;;;;;;;;5069017;28;20028;-74
2022/10/07 02:50:09;;;;;;;0.20;0.20;;;;;;;;;;5068816;28;20033;-74
2022/10/07 02:52:36;;;;;;;0.28;0.28;;;;;;;;;;5070020;28;20044;-74
2022/10/07 02:55:14;;;;;;;0.32;0.32;;;;;;;;;;5069845;28;20373;-75
2022/10/07 02:57:43;;;;;;;0.20;0.20;;;;;;;;;;5068813;28;20029;-73
2022/10/07 03:00:09;;;;;;;0.30;0.30;;;;;;;;;;5069913;28;20041;-75
2022/10/07 03:02:48;;;;;;;0.20;0.20;;;;;;;;;;5066110;28;20021;-73
2022/10/07 03:05:18;;;;;;;1.10;1.10;;;;;;;;;;5065951;28;20033;-73
2022/10/07 03:07:48;;;;;;;0.20;0.20;;;;;;;;;;5066192;28;20384;-74
2022/10/07 03:10:14;;;;;;;0.13;0.13;;;;;;;;;;5065583;28;20025;-75
2022/10/07 03:12:46;;;;;;;0.30;0.30;;;;;;;;;;5079902;28;20356;-75
2022/10/07 03:15:12;;;;;;;2.78;2.55;;;;;;;;;;5084879;28;20030;-75
2022/10/07 03:17:47;;;;;;;0.32;0.32;;;;;;;;;;5083270;28;20048;-75
2022/10/07 03:20:15;;;;;;;2.15;2.05;;;;;;;;;;5084376;28;20024;-77
2022/10/07 03:22:43;;;;;;;0.20;0.20;;;;;;;;;;5077429;28;20028;-71
2022/10/07 03:25:09;;;;;;;0.50;0.50;;;;;;;;;;5055606;28;20021;-76
2022/10/07 03:27:38;;;;;;;0.20;0.20;;;;;;;;;;5060469;28;20070;-76
2022/10/07 03:30:07;;;;;;;0.35;0.35;;;;;;;;;;5051103;28;20017;-77
2022/10/07 03:32:33;;;;;;;0.20;0.20;;;;;;;;;;5052103;28;20029;-77
2022/10/07 03:34:59;;;;;;;4.55;4.22;;;;;;;;;;5051017;28;20024;-79
2022/10/07 03:37:25;;;;;;;0.35;0.32;;;;;;;;;;5050939;28;20067;-78
2022/10/07 03:39:54;;;;;;;2.45;2.35;;;;;;;;;;5050800;28;20033;-77
2022/10/07 03:42:20;;;;;;;0.28;0.28;;;;;;;;;;5063656;28;20075;-78
2022/10/07 03:44:48;;;;;;;0.20;0.20;;;;;;;;;;5056183;28;20196;-76
2022/10/07 03:47:20;;;;;;;0.50;0.50;;;;;;;;;;5072012;28;20032;-74
2022/10/07 03:49:46;;;;;;;0.20;0.20;;;;;;;;;;5070457;28;20025;-73
2022/10/07 03:52:12;;;;;;;0.20;0.20;;;;;;;;;;5071889;28;20037;-74
2022/10/07 03:54:37;;;;;;;0.50;0.50;;;;;;;;;;5071584;28;20037;-74
2022/10/07 03:57:48;;;;;;;0.20;0.20;;;;;;;;;;5071052;28;20488;-73
2022/10/07 03:59:53;;;;;;;0.17;0.17;;;;;;;;;;5073837;28;20028;-74
2022/10/07 04:02:22;;;;;;;2.60;2.45;;;;;;;;;;5053228;28;20028;-70
2022/10/07 04:04:51;;;;;;;0.98;0.98;;;;;;;;;;5049766;28;20024;-75
2022/10/07 04:07:19;;;;;;;0.20;0.20;;;;;;;;;;5050271;28;20033;-74
2022/10/07 04:09:45;;;;;;;0.20;0.20;;;;;;;;;;5051810;28;20055;-75
2022/10/07 04:12:10;;;;;;;0.10;0.10;;;;;;;;;;5051295;28;20024;-75
2022/10/07 04:14:36;;;;;;;2.95;2.28;;;;;;;;;;5049820;28;20044;-74
2022/10/07 04:17:01;;;;;;;0.17;0.17;;;;;;;;;;5050207;28;20106;-72
2022/10/07 04:19:27;;;;;;;1.85;1.75;;;;;;;;;;5051421;28;20472;-75
2022/10/07 04:21:52;;;;;;;0.57;0.57;;;;;;;;;;5049864;28;20430;-71
2022/10/07 04:24:18;;;;;;;0.10;0.10;;;;;;;;;;5051054;28;20437;-71
2022/10/07 04:26:44;;;;;;;0.10;0.10;;;;;;;;;;5033171;28;20025;-76
2022/10/07 04:29:09;;;;;;;0.10;0.10;;;;;;;;;;5050947;28;20037;-74
2022/10/07 04:31:36;;;;;;;0.13;0.13;;;;;;;;;;5050181;28;20021;-75
2022/10/07 04:34:03;;;;;;;0.75;0.75;;;;;;;;;;5067642;28;20032;-70
2022/10/07 04:36:33;;;;;;;0.35;0.35;;;;;;;;;;5086633;28;20043;-76
2022/10/07 04:39:12;;;;;;;0.65;0.65;;;;;;;;;;5090245;28;20039;-74
2022/10/07 04:41:53;;;;;;;1.95;1.85;;;;;;;;;;5068273;28;20024;-71
2022/10/07 04:44:23;;;;;;;0.20;0.20;;;;;;;;;;5065181;28;20058;-73
2022/10/07 04:46:55;;;;;;;0.10;0.10;;;;;;;;;;5062224;28;20031;-74
2022/10/07 04:49:24;;;;;;;0.50;0.50;;;;;;;;;;5067573;28;20074;-76
2022/10/07 04:51:51;;;;;;;0.10;0.10;;;;;;;;;;5068222;28;20044;-74
2022/10/07 04:54:18;;;;;;;5.20;4.97;;;;;;;;;;5070133;28;20450;-74
2022/10/07 04:56:49;;;;;;;0.10;0.10;;;;;;;;;;5064666;28;20033;-74
2022/10/07 04:59:16;;;;;;;0.10;0.10;;;;;;;;;;5048731;28;20025;-69
2022/10/07 05:01:42;;;;;;;0.30;0.30;;;;;;;;;;5059528;28;20094;-73
2022/10/07 05:04:09;;;;;;;0.32;0.32;;;;;;;;;;5086708;28;20036;-72
2022/10/07 05:06:35;;;;;;;0.10;0.10;;;;;;;;;;5087977;28;20028;-74
2022/10/07 05:09:00;;;;;;;0.10;0.10;;;;;;;;;;5090187;28;20035;-73
2022/10/07 05:11:27;;;;;;;30.88;5.00;;;;;;;;;;5074232;28;20025;-73
2022/10/07 05:14:00;;;;;;;0.47;0.47;;;;;;;;;;5048688;28;20529;-74
2022/10/07 05:16:26;;;;;;;0.10;0.10;;;;;;;;;;5048087;28;20045;-70
2022/10/07 05:18:51;;;;;;;0.17;0.17;;;;;;;;;;5048442;28;20094;-74
2022/10/07 05:21:17;;;;;;;0.10;0.10;;;;;;;;;;5058278;28;20040;-73
2022/10/07 05:23:45;;;;;;;0.57;0.47;;;;;;;;;;5068564;28;20025;-71
2022/10/07 05:26:15;;;;;;;0.10;0.10;;;;;;;;;;5058105;28;20033;-76
2022/10/07 05:28:47;;;;;;;0.10;0.10;;;;;;;;;;5048911;28;20068;-75
2022/10/07 05:31:16;;;;;;;0.10;0.10;;;;;;;;;;5048848;28;20037;-73
2022/10/07 05:33:50;;;;;;;0.13;0.13;;;;;;;;;;5055215;28;20036;-76
2022/10/07 05:36:19;;;;;;;0.10;0.10;;;;;;;;;;5061615;28;20041;-74
2022/10/07 05:38:44;;;;;;;0.35;0.35;;;;;;;;;;5047714;28;20031;-74
2022/10/07 05:41:11;;;;;;;0.20;0.20;;;;;;;;;;5049888;28;20116;-75
2022/10/07 05:43:40;;;;;;;2.08;1.75;;;;;;;;;;5049591;28;20090;-74
2022/10/07 05:46:13;;;;;;;0.10;0.10;;;;;;;;;;5054606;28;20789;-75
2022/10/07 05:48:47;;;;;;;0.68;0.68;;;;;;;;;;5047925;28;20025;-74
2022/10/07 05:51:14;;;;;;;0.52;0.50;;;;;;;;;;5047851;28;20021;-75
2022/10/07 05:53:41;;;;;;;0.20;0.20;;;;;;;;;;5079290;28;20024;-75
2022/10/07 05:56:08;;;;;;;4.25;4.05;;;;;;;;;;5088216;28;20046;-74
2022/10/07 05:58:35;;;;;;;0.20;0.20;;;;;;;;;;5052038;28;20477;-74
2022/10/07 06:01:01;;;;;;;0.20;0.20;;;;;;;;;;5048441;28;20139;-74
2022/10/07 06:03:27;;;;;;;0.20;0.20;;;;;;;;;;5060901;28;20020;-73
2022/10/07 06:05:54;;;;;;;0.20;0.20;;;;;;;;;;5088124;28;20039;-74
2022/10/07 06:08:23;;;;;;;0.10;0.10;;;;;;;;;;5070968;28;20432;-75
2022/10/07 06:13:37;;;;;;;0.20;0.20;;;;;;;;;;5049829;28;20029;-75
2022/10/07 06:16:06;;;;;;;0.28;0.28;;;;;;;;;;5047854;28;20385;-75
2022/10/07 06:18:34;;;;;;;0.20;0.20;;;;;;;;;;5052933;28;20040;-75
2022/10/07 06:21:00;;;;;;;0.20;0.20;;;;;;;;;;5065371;28;20051;-74
2022/10/07 06:23:28;;;;;;;1.20;1.13;;;;;;;;;;5085734;28;20030;-74
2022/10/07 06:25:55;;;;;;;0.20;0.20;;;;;;;;;;5075676;28;20077;-74
2022/10/07 06:28:21;;;;;;;0.20;0.20;;;;;;;;;;5084732;28;20532;-74
2022/10/07 06:30:47;;;;;;;0.10;0.10;;;;;;;;;;5061990;28;20058;-74
2022/10/07 06:33:13;;;;;;;0.15;0.15;;;;;;;;;;5067950;28;20051;-74
2022/10/07 06:35:38;;;;;;;6.15;5.68;;;;;;;;;;5077297;28;20037;-74
2022/10/07 06:38:04;;;;;;;0.68;0.65;;;;;;;;;;5072788;28;20346;-73
2022/10/07 06:40:30;;;;;;;0.20;0.20;;;;;;;;;;5062576;28;20029;-72
2022/10/07 06:42:55;;;;;;;0.50;0.50;;;;;;;;;;5052764;28;20021;-71
2022/10/07 06:45:41;;;;;;;4.05;2.95;;;;;;;;;;5079571;28;20021;-71
2022/10/07 06:48:10;;;;;;;0.10;0.10;;;;;;;;;;5049661;28;20498;-70
2022/10/07 06:50:36;;;;;;;0.20;0.20;;;;;;;;;;5061289;28;20112;-71
2022/10/07 06:53:02;;;;;;;0.20;0.20;;;;;;;;;;5054135;28;20124;-71
2022/10/07 06:55:30;;;;;;;0.20;0.20;;;;;;;;;;5055114;28;20025;-74
2022/10/07 06:57:55;;;;;;;1.00;1.00;;;;;;;;;;5051479;28;20044;-69
2022/10/07 07:00:21;;;;;;;0.20;0.20;;;;;;;;;;5068919;28;20039;-70
2022/10/07 07:02:50;;;;;;;0.20;0.20;;;;;;;;;;5048590;28;20056;-74
2022/10/07 07:05:16;;;;;;;0.60;0.60;;;;;;;;;;5055058;28;20074;-72
2022/10/07 07:07:48;;;;;;;0.20;0.20;;;;;;;;;;5048942;28;20123;-73
2022/10/07 07:10:15;;;;;;;0.20;0.20;;;;;;;;;;5049682;28;20087;-72
2022/10/07 07:12:44;;;;;;;0.20;0.20;;;;;;;;;;5050116;28;20035;-71
2022/10/07 07:15:10;;;;;;;2.70;1.52;;;;;;;;;;5050534;28;20029;-72
2022/10/07 07:17:38;;;;;;;0.47;0.47;;;;;;;;;;5049882;28;20496;-71
2022/10/07 07:20:04;;;;;;;0.20;0.20;;;;;;;;;;5050377;28;20079;-73
2022/10/07 07:22:30;;;;;;;0.28;0.28;;;;;;;;;;5050875;28;20652;-73
2022/10/07 07:24:55;;;;;;;2.15;2.05;;;;;;;;;;5049550;28;20967;-71
2022/10/07 07:27:21;;;;;;;1.67;1.58;;;;;;;;;;5048518;28;20434;-71
2022/10/07 07:29:47;;;;;;;0.17;0.17;;;;;;;;;;5032142;28;20029;-71
2022/10/07 07:32:12;;;;;;;1.77;1.65;;;;;;;;;;5050068;28;20029;-72
2022/10/07 07:34:41;;;;;;;0.60;0.60;;;;;;;;;;5048755;28;20052;-72
2022/10/07 07:37:09;;;;;;;0.20;0.20;;;;;;;;;;5050181;28;20037;-72
2022/10/07 07:39:41;;;;;;;0.73;0.73;;;;;;;;;;5050665;28;20045;-70
2022/10/07 07:42:10;;;;;;;0.20;0.20;;;;;;;;;;5050312;28;20396;-71
2022/10/07 07:44:37;;;;;;;0.77;0.77;;;;;;;;;;5050607;28;20082;-73
2022/10/07 07:47:07;;;;;;;0.20;0.20;;;;;;;;;;5054803;28;20032;-72
2022/10/07 07:49:34;;;;;;;0.10;0.10;;;;;;;;;;5065033;28;20016;-73
2022/10/07 07:52:00;;;;;;;0.47;0.28;;;;;;;;;;5052583;28;20032;-73
2022/10/07 07:54:31;;;;;;;0.40;0.40;;;;;;;;;;5047242;28;20108;-73
2022/10/07 07:56:56;;;;;;;0.30;0.30;;;;;;;;;;5068935;28;20025;-73
2022/10/07 07:59:24;;;;;;;0.20;0.20;;;;;;;;;;5069488;28;20085;-73
2022/10/07 08:01:51;;;;;;;0.20;0.20;;;;;;;;;;5069782;28;20025;-73
2022/10/07 08:04:17;;;;;;;0.30;0.30;;;;;;;;;;5071396;28;20033;-75
2022/10/07 08:06:43;;;;;;;0.73;0.50;;;;;;;;;;5081459;28;20115;-72
2022/10/07 08:09:11;;;;;;;0.30;0.30;;;;;;;;;;5090683;28;20118;-70
2022/10/07 08:11:37;;;;;;;0.30;0.30;;;;;;;;;;5072827;28;20039;-71
2022/10/07 08:14:03;;;;;;;0.60;0.52;;;;;;;;;;5073002;28;20391;-73
2022/10/07 08:16:31;;;;;;;0.45;0.45;;;;;;;;;;5084431;28;20055;-73
2022/10/07 08:18:59;;;;;;;0.20;0.20;;;;;;;;;;5087720;28;20034;-73
2022/10/07 08:21:25;;;;;;;0.20;0.20;;;;;;;;;;5080074;28;20107;-73
2022/10/07 08:23:56;;;;;;;0.30;0.30;;;;;;;;;;5073812;28;20417;-72
2022/10/07 08:26:27;;;;;;;1.17;1.17;;;;;;;;;;5089881;28;20024;-74
2022/10/07 08:28:55;;;;;;;0.17;0.17;;;;;;;;;;5089338;28;20538;-73
2022/10/07 08:31:21;;;;;;;0.20;0.20;;;;;;;;;;5089876;28;20020;-71
2022/10/07 08:33:48;;;;;;;0.20;0.20;;;;;;;;;;5086830;28;20035;-69
2022/10/07 08:36:18;;;;;;;0.80;0.77;;;;;;;;;;5084294;28;20040;-74
2022/10/07 08:38:45;;;;;;;0.20;0.20;;;;;;;;;;5077764;28;20457;-74
2022/10/07 08:41:14;;;;;;;0.55;0.55;;;;;;;;;;5086537;28;20016;-73
2022/10/07 08:43:43;;;;;;;0.20;0.20;;;;;;;;;;5083241;28;20059;-73
2022/10/07 08:46:11;;;;;;;0.20;0.20;;;;;;;;;;5089258;28;20031;-73
2022/10/07 08:48:37;;;;;;;0.20;0.20;;;;;;;;;;5086033;28;20024;-73
2022/10/07 08:51:19;;;;;;;0.38;0.38;;;;;;;;;;5086323;28;20038;-73
2022/10/07 08:53:47;;;;;;;0.20;0.20;;;;;;;;;;5090239;28;20043;-72
2022/10/07 08:56:14;;;;;;;0.20;0.20;;;;;;;;;;5073298;28;20064;-72
2022/10/07 08:58:46;;;;;;;0.20;0.20;;;;;;;;;;5082221;28;20059;-75
2022/10/07 09:01:14;;;;;;;0.20;0.20;;;;;;;;;;5089165;28;20361;-74
2022/10/07 09:03:43;;;;;;;0.20;0.20;;;;;;;;;;5090247;28;20032;-74
2022/10/07 09:06:19;;;;;;;0.20;0.20;;;;;;;;;;5089740;28;20506;-71
2022/10/07 09:08:48;;;;;;;0.52;0.52;;;;;;;;;;5089881;28;20032;-73
2022/10/07 09:11:18;;;;;;;0.22;0.22;;;;;;;;;;5089780;28;20596;-72
2022/10/07 09:13:56;;;;;;;0.82;0.82;;;;;;;;;;5068006;28;20047;-74
2022/10/07 09:16:25;;;;;;;0.43;0.43;;;;;;;;;;5083997;28;20165;-70
2022/10/07 09:18:56;;;;;;;0.20;0.20;;;;;;;;;;5089620;28;20495;-72
2022/10/07 09:21:43;;;;;;;0.55;0.55;;;;;;;;;;5089858;28;20421;-73
2022/10/07 09:24:18;;;;;;;0.30;0.30;;;;;;;;;;5089831;28;20020;-74
2022/10/07 09:26:43;;;;;;;0.57;0.57;;;;;;;;;;5088903;28;20046;-72
2022/10/07 09:29:09;;;;;;;2.17;1.95;;;;;;;;;;5075926;28;20082;-73
2022/10/07 09:31:35;;;;;;;0.20;0.20;;;;;;;;;;5068313;28;20024;-74
2022/10/07 09:34:00;;;;;;;0.20;0.20;;;;;;;;;;5068106;28;20781;-74
2022/10/07 09:36:26;;;;;;;0.30;0.30;;;;;;;;;;5067977;28;20032;-70
2022/10/07 09:38:52;;;;;;;0.50;0.50;;;;;;;;;;5058675;28;20085;-73
2022/10/07 09:41:37;;;;;;;0.20;0.20;;;;;;;;;;5069109;28;20484;-73
2022/10/07 09:44:21;;;;;;;0.30;0.30;;;;;;;;;;5065149;28;20107;-74
2022/10/07 09:46:47;;;;;;;0.30;0.30;;;;;;;;;;5068822;28;20036;-69
2022/10/07 09:49:29;;;;;;;0.30;0.30;;;;;;;;;;5068336;28;20025;-72
2022/10/07 09:52:03;;;;;;;0.20;0.20;;;;;;;;;;5068756;28;20058;-73
2022/10/07 09:54:30;;;;;;;0.20;0.20;;;;;;;;;;5070080;28;20028;-73
2022/10/07 09:56:56;;;;;;;0.80;0.80;;;;;;;;;;5056012;28;20037;-72
2022/10/07 09:59:24;;;;;;;0.30;0.30;;;;;;;;;;5046951;28;20431;-72
2022/10/07 10:02:13;;;;;;;0.90;0.90;;;;;;;;;;5047171;28;20021;-72
2022/10/07 10:04:49;;;;;;;0.38;0.38;;;;;;;;;;5044276;28;20500;-73
2022/10/07 10:07:19;;;;;;;0.47;0.47;;;;;;;;;;5060043;28;20031;-70
2022/10/07 10:09:48;;;;;;;0.30;0.30;;;;;;;;;;5083015;28;20069;-70
2022/10/07 10:12:15;;;;;;;0.50;0.50;;;;;;;;;;5081402;28;20104;-72
2022/10/07 10:14:40;;;;;;;0.40;0.40;;;;;;;;;;5079822;28;20113;-73
2022/10/07 10:17:19;;;;;;;1.02;0.85;;;;;;;;;;5082464;28;20555;-71
2022/10/07 10:19:45;;;;;;;0.40;0.40;;;;;;;;;;5060760;28;20038;-74
2022/10/07 10:22:22;;;;;;;0.20;0.20;;;;;;;;;;5071015;28;20032;-72
2022/10/07 10:27:39;;;;;;;0.20;0.20;;;;;;;;;;5088094;28;20081;-74
2022/10/07 10:30:06;;;;;;;0.30;0.30;;;;;;;;;;5088919;28;20028;-73
2022/10/07 10:32:35;;;;;;;0.30;0.30;;;;;;;;;;5089193;28;20020;-74
2022/10/07 10:35:20;;;;;;;0.47;0.47;;;;;;;;;;5085052;28;20505;-73
2022/10/07 10:38:24;;;;;;;1.70;1.38;;;;;;;;;;5069042;28;20048;-73
2022/10/07 10:41:00;;;;;;;2.05;1.10;;;;;;;;;;5017939;28;20108;-72
2022/10/07 10:43:41;;;;;;;1.42;1.38;;;;;;;;;;5030688;28;20044;-75
2022/10/07 10:46:07;;;;;;;1.00;0.88;;;;;;;;;;5070466;28;20044;-73
2022/10/07 10:48:33;;;;;;;0.75;0.75;;;;;;;;;;5091636;28;20031;-75
2022/10/07 10:50:59;;;;;;;5.28;2.42;;;;;;;;;;5092545;28;20126;-74
2022/10/07 10:53:24;;;;;;;0.82;0.77;;;;;;;;;;5092796;28;20451;-75
2022/10/07 10:55:50;;;;;;;0.60;0.50;;;;;;;;;;5082857;28;20028;-73
2022/10/07 10:58:23;;;;;;;0.50;0.50;;;;;;;;;;5092239;28;20040;-72
2022/10/07 11:00:57;;;;;;;0.55;0.55;;;;;;;;;;5092204;28;20058;-71
2022/10/07 11:03:31;;;;;;;1.58;0.65;;;;;;;;;;5092663;28;20024;-73
2022/10/07 11:05:59;;;;;;;0.30;0.30;;;;;;;;;;5091466;28;20136;-73
2022/10/07 11:08:31;;;;;;;0.45;0.43;;;;;;;;;;5092796;28;20020;-74
2022/10/07 11:10:58;;;;;;;0.45;0.45;;;;;;;;;;5092207;28;20031;-71
2022/10/07 11:13:24;;;;;;;0.30;0.30;;;;;;;;;;5092064;28;20028;-73
2022/10/07 11:15:52;;;;;;;0.40;0.40;;;;;;;;;;5067775;28;20013;-74
2022/10/07 11:18:39;;;;;;;0.68;0.63;;;;;;;;;;5053292;28;20488;-75
2022/10/07 11:21:09;;;;;;;0.65;0.60;;;;;;;;;;5067140;28;20033;-74
2022/10/07 11:23:45;;;;;;;0.63;0.30;;;;;;;;;;5051668;28;20033;-75
2022/10/07 11:26:11;;;;;;;2.08;1.10;;;;;;;;;;5051875;28;20033;-75
2022/10/07 11:28:38;;;;;;;0.22;0.22;;;;;;;;;;5051705;28;20029;-73
2022/10/07 11:31:16;;;;;;;1.77;0.68;;;;;;;;;;5050212;28;20060;-74
2022/10/07 11:33:45;;;;;;;0.30;0.30;;;;;;;;;;5051500;28;20112;-74
2022/10/07 11:36:10;;;;;;;;;;;;;;;;;;5049646;28;20032;-73
2022/10/07 11:38:37;;;;;;;0.60;0.60;;;;;;;;;;5068583;28;19912;-74
2022/10/07 11:41:14;;;;;;;0.60;0.52;;;;;;;;;;5074894;28;20305;-73
2022/10/07 11:43:44;;;;;;;0.50;0.50;;;;;;;;;;5080402;28;20020;-73
2022/10/07 11:46:15;;;;;;;0.40;0.40;;;;;;;;;;5080762;28;20032;-74
2022/10/07 11:48:44;;;;;;;1.13;0.93;;;;;;;;;;5079055;28;20060;-73
2022/10/07 11:51:17;;;;;;;1.35;1.02;;;;;;;;;;5069292;28;20028;-73
2022/10/07 11:53:43;;;;;;;0.63;0.60;;;;;;;;;;5081891;28;20028;-74
2022/10/07 11:56:21;;;;;;;2.85;1.50;;;;;;;;;;5089965;28;20029;-73
2022/10/07 11:58:55;;;;;;;1.75;1.05;;;;;;;;;;5091035;28;20464;-74
2022/10/07 12:01:29;;;;;;;1.55;1.38;;;;;;;;;;5091381;28;20584;-74
2022/10/07 12:04:14;;;;;;;2.75;1.40;;;;;;;;;;5091829;28;20036;-73
2022/10/07 12:07:02;;;;;;;0.55;0.40;;;;;;;;;;5087397;28;20110;-74
2022/10/07 12:09:47;;;;;;;2.30;1.00;;;;;;;;;;5088062;28;20039;-74
2022/10/07 12:12:12;;;;;;;3.10;1.10;;;;;;;;;;5089755;28;20044;-73
2022/10/07 12:14:42;;;;;;;0.80;0.80;;;;;;;;;;5089703;28;20117;-73
2022/10/07 12:17:18;;;;;;;0.73;0.68;;;;;;;;;;5087199;28;20455;-73
2022/10/07 12:19:44;;;;;;;0.40;0.40;;;;;;;;;;5072961;28;20044;-75
2022/10/07 12:22:09;;;;;;;0.85;0.75;;;;;;;;;;5088278;28;20036;-73
2022/10/07 12:24:35;;;;;;;0.30;0.30;;;;;;;;;;5089135;28;20035;-72
2022/10/07 12:27:21;;;;;;;0.25;0.25;;;;;;;;;;5087364;28;20472;-71
2022/10/07 12:29:48;;;;;;;0.20;0.20;;;;;;;;;;5087719;28;20369;-74
2022/10/07 12:32:33;;;;;;;0.30;0.30;;;;;;;;;;5088451;28;20086;-73
2022/10/07 12:35:20;;;;;;;0.82;0.65;;;;;;;;;;5088702;28;20024;-74
2022/10/07 12:37:46;;;;;;;0.30;0.30;;;;;;;;;;5089448;28;20055;-74
2022/10/07 12:40:23;;;;;;;0.40;0.40;;;;;;;;;;5089188;28;20019;-74
2022/10/07 12:43:02;;;;;;;0.85;0.55;;;;;;;;;;5088609;28;20024;-74
2022/10/07 12:45:28;;;;;;;;;;;;;;;;;;5089519;28;20028;-73
2022/10/07 12:47:54;;;;;;;4.95;2.08;;;;;;;;;;5087410;28;19965;-74
2022/10/07 12:50:21;;;;;;;0.70;0.55;;;;;;;;;;5062881;28;20095;-74
2022/10/07 12:52:52;;;;;;;1.55;1.42;;;;;;;;;;5080521;28;20032;-75
2022/10/07 12:55:20;;;;;;;0.30;0.30;;;;;;;;;;5077005;28;20386;-73
2022/10/07 12:57:53;;;;;;;1.27;0.80;;;;;;;;;;5060421;28;20036;-72
2022/10/07 13:00:21;;;;;;;0.55;0.55;;;;;;;;;;5061436;28;20047;-74
2022/10/07 13:03:06;;;;;;;1.43;0.63;;;;;;;;;;5072686;28;20036;-76
2022/10/07 13:05:55;;;;;;;5.18;1.55;;;;;;;;;;5067748;28;20342;-73
2022/10/07 13:08:39;;;;;;;1.48;0.85;;;;;;;;;;5057120;28;20074;-74
2022/10/07 13:11:07;;;;;;;0.40;0.40;;;;;;;;;;5066045;28;20025;-74
2022/10/07 13:13:37;;;;;;;0.63;0.50;;;;;;;;;;5056751;28;20086;-74
2022/10/07 13:16:08;;;;;;;5.22;2.75;;;;;;;;;;5052200;28;20040;-75
2022/10/07 13:18:43;;;;;;;0.65;0.40;;;;;;;;;;5047699;28;20033;-74
2022/10/07 13:21:09;;;;;;;5.45;1.15;;;;;;;;;;5046751;28;20075;-74
2022/10/07 13:23:35;;;;;;;1.13;0.73;;;;;;;;;;5048081;28;20072;-74
2022/10/07 13:26:02;;;;;;;0.65;0.45;;;;;;;;;;5078860;28;20035;-75
2022/10/07 13:28:56;;;;;;;0.55;0.55;;;;;;;;;;5079134;28;20414;-73
2022/10/07 13:31:23;;;;;;;2.78;0.73;;;;;;;;;;5074557;28;20589;-74
2022/10/07 13:33:50;;;;;;;0.75;0.75;;;;;;;;;;5088464;28;20036;-74
2022/10/07 13:36:17;;;;;;;0.30;0.30;;;;;;;;;;5087697;28;20066;-74
2022/10/07 13:38:45;;;;;;;0.20;0.20;;;;;;;;;;5086419;28;20470;-72
2022/10/07 13:41:20;;;;;;;0.30;0.30;;;;;;;;;;5069115;28;20024;-74
2022/10/07 13:43:46;;;;;;;0.93;0.88;;;;;;;;;;5083985;28;20766;-74
2022/10/07 13:46:13;;;;;;;0.52;0.52;;;;;;;;;;5082965;28;20047;-73
2022/10/07 13:48:41;;;;;;;1.33;0.52;;;;;;;;;;5076895;28;20024;-72
2022/10/07 13:51:12;;;;;;;1.15;0.40;;;;;;;;;;5087588;28;20085;-74
2022/10/07 13:53:37;;;;;;;0.47;0.40;;;;;;;;;;5087789;28;20127;-73
2022/10/07 13:56:04;;;;;;;0.20;0.20;;;;;;;;;;5087399;28;20094;-74
2022/10/07 13:58:32;;;;;;;0.20;0.20;;;;;;;;;;5087755;28;20766;-74
2022/10/07 14:00:57;;;;;;;0.20;0.20;;;;;;;;;;5085639;28;20117;-74
2022/10/07 14:03:23;;;;;;;0.25;0.25;;;;;;;;;;5073801;28;20021;-73
2022/10/07 14:05:52;;;;;;;0.40;0.38;;;;;;;;;;5049185;28;20037;-73
2022/10/07 14:08:20;;;;;;;0.20;0.20;;;;;;;;;;5047506;28;20083;-73
2022/10/07 14:11:08;;;;;;;0.43;0.43;;;;;;;;;;5046767;28;20029;-73
2022/10/07 14:13:36;;;;;;;0.20;0.20;;;;;;;;;;5043767;28;20040;-75
2022/10/07 14:16:02;;;;;;;0.20;0.20;;;;;;;;;;5046984;28;20098;-74
2022/10/07 14:18:30;;;;;;;0.13;0.13;;;;;;;;;;5057681;28;20031;-74
2022/10/07 14:21:06;;;;;;;1.23;0.75;;;;;;;;;;5084493;28;20047;-74
2022/10/07 14:23:33;;;;;;;0.25;0.25;;;;;;;;;;5087040;28;20036;-76
2022/10/07 14:26:00;;;;;;;0.20;0.20;;;;;;;;;;5075923;28;20032;-76
2022/10/07 14:28:27;;;;;;;0.55;0.55;;;;;;;;;;5079253;28;20044;-72
2022/10/07 14:37:03;;;;;;;0.30;0.30;;;;;;;;;;5087213;28;20086;-75
2022/10/07 14:39:38;;;;;;;2.80;2.28;;;;;;;;;;5087181;28;20032;-75
2022/10/07 14:42:04;;;;;;;0.10;0.10;;;;;;;;;;5086786;28;20106;-76
2022/10/07 14:44:30;;;;;;;0.15;0.15;;;;;;;;;;5085787;28;20082;-76
2022/10/07 14:47:03;;;;;;;0.20;0.20;;;;;;;;;;5082075;28;20425;-76
2022/10/07 14:49:28;;;;;;;0.20;0.20;;;;;;;;;;5067012;28;20033;-76
2022/10/07 14:51:54;;;;;;;0.22;0.22;;;;;;;;;;5066948;28;20032;-76
2022/10/07 14:54:19;;;;;;;0.30;0.30;;;;;;;;;;5068882;28;20031;-76
2022/10/07 14:56:45;;;;;;;0.20;0.20;;;;;;;;;;5084681;28;20383;-74
2022/10/07 14:59:13;;;;;;;0.20;0.20;;;;;;;;;;5085715;28;20065;-75
2022/10/07 15:01:39;;;;;;;0.30;0.30;;;;;;;;;;5067402;28;20427;-74
2022/10/07 15:04:05;;;;;;;0.43;0.43;;;;;;;;;;5074540;28;20036;-78
2022/10/07 15:06:32;;;;;;;0.20;0.20;;;;;;;;;;5069436;28;20472;-75
2022/10/07 15:08:58;;;;;;;0.25;0.25;;;;;;;;;;5084874;28;20659;-75
2022/10/07 15:11:24;;;;;;;0.30;0.30;;;;;;;;;;5061688;28;20063;-72